createdAt,value
2022-08-21T00:02:16.951Z,30.40
2022-08-21T00:04:54.584Z,30.50
2022-08-21T00:07:27.744Z,30.50
2022-08-21T00:09:55.645Z,30.50
2022-08-21T00:12:24.644Z,30.40
2022-08-21T00:14:57.033Z,30.40
2022-08-21T00:17:26.043Z,30.40
2022-08-21T00:19:53.883Z,30.40
2022-08-21T00:22:21.795Z,30.40
2022-08-21T00:24:50.949Z,30.40
2022-08-21T00:27:18.807Z,30.40
2022-08-21T00:29:46.703Z,30.40
2022-08-21T00:32:14.572Z,30.40
2022-08-21T00:34:42.619Z,30.40
2022-08-21T00:37:10.785Z,30.40
2022-08-21T00:39:38.748Z,30.40
2022-08-21T00:42:08.183Z,30.40
2022-08-21T00:44:36.087Z,30.40
2022-08-21T00:47:04.020Z,30.40
2022-08-21T00:49:31.983Z,30.40
2022-08-21T00:52:02.956Z,30.40
2022-08-21T00:54:33.838Z,30.40
2022-08-21T00:57:09.656Z,30.40
2022-08-21T00:59:42.189Z,30.40
2022-08-21T01:02:11.929Z,30.40
2022-08-21T01:04:40.431Z,30.40
2022-08-21T01:07:08.785Z,30.40
2022-08-21T01:09:37.237Z,30.40
2022-08-21T01:12:05.939Z,30.40
2022-08-21T01:14:36.416Z,30.40
2022-08-21T01:17:05.178Z,30.40
2022-08-21T01:19:33.523Z,30.40
2022-08-21T01:22:02.800Z,30.40
2022-08-21T01:24:32.513Z,30.30
2022-08-21T01:27:01.601Z,30.30
2022-08-21T01:29:39.818Z,30.30
2022-08-21T01:32:15.885Z,30.30
2022-08-21T01:34:46.787Z,30.30
2022-08-21T01:37:17.828Z,30.30
2022-08-21T01:39:46.542Z,30.30
2022-08-21T01:42:15.422Z,30.30
2022-08-21T01:44:44.320Z,30.30
2022-08-21T01:47:15.228Z,30.30
2022-08-21T01:49:46.624Z,30.30
2022-08-21T01:52:15.940Z,30.30
2022-08-21T01:54:45.017Z,30.30
2022-08-21T01:57:15.445Z,30.30
2022-08-21T01:59:43.439Z,30.30
2022-08-21T02:02:11.493Z,30.30
2022-08-21T02:04:39.408Z,30.30
2022-08-21T02:07:08.503Z,30.30
2022-08-21T02:09:40.178Z,30.30
2022-08-21T02:12:08.868Z,30.30
2022-08-21T02:14:37.012Z,30.30
2022-08-21T02:17:09.409Z,30.30
2022-08-21T02:19:40.222Z,30.30
2022-08-21T02:22:10.245Z,30.30
2022-08-21T02:24:54.402Z,30.30
2022-08-21T02:27:26.627Z,30.30
2022-08-21T02:29:56.851Z,30.30
2022-08-21T02:32:24.822Z,30.30
2022-08-21T02:34:53.224Z,30.30
2022-08-21T02:37:21.856Z,30.30
2022-08-21T02:39:51.131Z,30.30
2022-08-21T02:42:19.188Z,30.30
2022-08-21T02:44:47.051Z,30.20
2022-08-21T02:47:16.360Z,30.20
2022-08-21T02:49:44.239Z,30.30
2022-08-21T02:52:12.878Z,30.20
2022-08-21T02:54:40.703Z,30.20
2022-08-21T02:57:10.241Z,30.20
2022-08-21T02:59:38.048Z,30.20
2022-08-21T03:02:06.264Z,30.20
2022-08-21T03:04:34.385Z,30.20
2022-08-21T03:07:02.455Z,30.20
2022-08-21T03:09:30.263Z,30.20
2022-08-21T03:11:58.692Z,30.20
2022-08-21T03:14:27.907Z,30.20
2022-08-21T03:16:55.673Z,30.20
2022-08-21T03:19:23.441Z,30.20
2022-08-21T03:21:51.235Z,30.20
2022-08-21T03:24:19.020Z,30.20
2022-08-21T03:26:49.133Z,30.20
2022-08-21T03:29:17.940Z,30.20
2022-08-21T03:31:47.137Z,30.20
2022-08-21T03:34:17.004Z,30.20
2022-08-21T03:36:44.897Z,30.20
2022-08-21T03:39:12.671Z,30.20
2022-08-21T03:41:40.465Z,30.20
2022-08-21T03:44:08.258Z,30.20
2022-08-21T03:46:36.115Z,30.20
2022-08-21T03:49:05.247Z,30.20
2022-08-21T03:51:34.607Z,30.20
2022-08-21T03:54:02.383Z,30.20
2022-08-21T03:56:30.323Z,30.20
2022-08-21T03:58:58.137Z,30.20
2022-08-21T04:01:26.732Z,30.20
2022-08-21T04:03:54.557Z,30.20
2022-08-21T04:06:23.696Z,30.20
2022-08-21T04:08:51.515Z,30.20
2022-08-21T04:11:19.296Z,30.20
2022-08-21T04:13:47.976Z,30.10
2022-08-21T04:16:16.800Z,30.10
2022-08-21T04:18:44.595Z,30.10
2022-08-21T04:21:13.800Z,30.10
2022-08-21T04:23:43.231Z,30.10
2022-08-21T04:26:11.162Z,30.10
2022-08-21T04:28:38.958Z,30.10
2022-08-21T04:31:07.644Z,30.10
2022-08-21T04:33:35.473Z,30.10
2022-08-21T04:36:03.623Z,30.10
2022-08-21T04:38:33.146Z,30.10
2022-08-21T04:41:07.552Z,30.10
2022-08-21T04:43:36.071Z,30.10
2022-08-21T04:46:04.025Z,30.10
2022-08-21T04:48:31.899Z,30.10
2022-08-21T04:51:09.258Z,30.10
2022-08-21T04:53:44.684Z,30.10
2022-08-21T04:56:19.907Z,30.10
2022-08-21T04:58:49.771Z,30.10
2022-08-21T05:01:25.517Z,30.10
2022-08-21T05:03:58.512Z,30.10
2022-08-21T05:06:27.529Z,30.10
2022-08-21T05:09:01.662Z,30.10
2022-08-21T05:11:31.971Z,30.10
2022-08-21T05:13:59.953Z,30.10
2022-08-21T05:16:36.577Z,30.10
2022-08-21T05:19:05.828Z,30.10
2022-08-21T05:21:33.932Z,30.10
2022-08-21T05:24:02.088Z,30.10
2022-08-21T05:26:31.747Z,30.10
2022-08-21T05:29:00.447Z,30.10
2022-08-21T05:31:28.329Z,30.10
2022-08-21T05:33:56.210Z,30.10
2022-08-21T05:36:24.329Z,30.10
2022-08-21T05:38:52.832Z,30.10
2022-08-21T05:41:20.614Z,30.10
2022-08-21T05:43:50.006Z,30.10
2022-08-21T05:46:17.924Z,30.10
2022-08-21T05:48:45.726Z,30.10
2022-08-21T05:51:17.431Z,30.10
2022-08-21T05:53:46.862Z,30.10
2022-08-21T05:56:16.163Z,30.10
2022-08-21T05:58:44.460Z,30.10
2022-08-21T06:01:14.632Z,30.10
2022-08-21T06:03:44.064Z,30.10
2022-08-21T06:06:12.044Z,30.10
2022-08-21T06:08:40.164Z,30.10
2022-08-21T06:11:08.730Z,30.10
2022-08-21T06:13:38.389Z,30.10
2022-08-21T06:16:10.304Z,30.10
2022-08-21T06:18:41.415Z,30.10
2022-08-21T06:21:10.259Z,30.10
2022-08-21T06:23:38.060Z,30.10
2022-08-21T06:26:08.096Z,30.10
2022-08-21T06:28:36.965Z,30.00
2022-08-21T06:31:14.890Z,30.00
2022-08-21T06:33:44.317Z,30.00
2022-08-21T06:36:12.218Z,30.00
2022-08-21T06:38:40.579Z,30.00
2022-08-21T06:41:10.132Z,30.00
2022-08-21T06:43:39.764Z,30.00
2022-08-21T06:46:09.122Z,30.00
2022-08-21T06:48:37.316Z,30.00
2022-08-21T06:51:07.104Z,30.00
2022-08-21T06:53:35.628Z,30.00
2022-08-21T06:56:04.544Z,29.90
2022-08-21T06:58:32.644Z,29.90
2022-08-21T07:01:01.503Z,29.90
2022-08-21T07:03:32.091Z,29.90
2022-08-21T07:06:00.357Z,29.90
2022-08-21T07:08:30.422Z,29.90
2022-08-21T07:11:02.462Z,29.90
2022-08-21T07:13:30.760Z,29.90
2022-08-21T07:16:03.691Z,29.80
2022-08-21T07:18:32.057Z,29.80
2022-08-21T07:20:59.971Z,29.80
2022-08-21T07:23:32.768Z,29.80
2022-08-21T07:26:02.420Z,29.80
2022-08-21T07:28:31.127Z,29.80
2022-08-21T07:31:01.515Z,29.80
2022-08-21T07:33:33.164Z,29.80
2022-08-21T07:36:01.949Z,29.70
2022-08-21T07:38:31.192Z,29.70
2022-08-21T07:41:01.490Z,29.70
2022-08-21T07:43:30.004Z,29.70
2022-08-21T07:45:58.317Z,29.70
2022-08-21T07:48:26.339Z,29.70
2022-08-21T07:50:54.184Z,29.70
2022-08-21T07:53:21.939Z,29.70
2022-08-21T07:55:51.072Z,29.70
2022-08-21T07:58:18.881Z,29.70
2022-08-21T08:00:46.723Z,29.70
2022-08-21T08:03:14.471Z,29.70
2022-08-21T08:05:48.467Z,29.70
2022-08-21T08:08:16.267Z,29.70
2022-08-21T08:10:44.232Z,29.70
2022-08-21T08:13:13.344Z,29.70
2022-08-21T08:15:41.288Z,29.70
2022-08-21T08:18:10.640Z,29.70
2022-08-21T08:20:38.427Z,29.70
2022-08-21T08:23:06.412Z,29.70
2022-08-21T08:25:36.464Z,29.70
2022-08-21T08:28:16.864Z,29.70
2022-08-21T08:30:47.708Z,29.70
2022-08-21T08:33:16.337Z,29.70
2022-08-21T08:35:47.187Z,29.70
2022-08-21T08:38:21.467Z,29.70
2022-08-21T08:41:04.976Z,29.70
2022-08-21T08:43:35.960Z,29.70
2022-08-21T08:46:14.164Z,29.70
2022-08-21T08:48:52.964Z,29.70
2022-08-21T08:51:27.512Z,29.70
2022-08-21T08:54:03.693Z,29.70
2022-08-21T08:56:36.021Z,29.70
2022-08-21T08:59:15.203Z,29.70
2022-08-21T09:01:44.986Z,29.70
2022-08-21T09:04:14.604Z,29.70
2022-08-21T09:06:59.432Z,29.70
2022-08-21T09:09:53.495Z,29.70
2022-08-21T09:12:39.961Z,29.70
2022-08-21T09:15:21.305Z,29.70
2022-08-21T09:18:14.618Z,29.70
2022-08-21T09:20:56.448Z,29.70
2022-08-21T09:23:35.781Z,29.70
2022-08-21T09:26:15.626Z,29.80
2022-08-21T09:28:45.244Z,29.70
2022-08-21T09:31:30.854Z,29.70
2022-08-21T09:34:07.172Z,29.80
2022-08-21T09:36:41.436Z,29.70
2022-08-21T09:39:12.084Z,29.70
2022-08-21T09:41:41.932Z,29.80
2022-08-21T09:44:10.973Z,29.80
2022-08-21T09:46:38.827Z,29.80
2022-08-21T09:49:14.926Z,29.80
2022-08-21T09:51:54.806Z,29.80
2022-08-21T09:54:31.260Z,29.80
2022-08-21T09:57:19.602Z,29.80
2022-08-21T09:59:49.580Z,29.80
2022-08-21T10:02:28.700Z,29.80
2022-08-21T10:05:01.166Z,29.80
2022-08-21T10:07:32.037Z,29.80
2022-08-21T10:10:01.323Z,29.80
2022-08-21T10:12:43.780Z,29.80
2022-08-21T10:15:23.916Z,29.80
2022-08-21T10:18:08.170Z,29.80
2022-08-21T10:20:48.131Z,29.80
2022-08-21T10:23:39.399Z,29.80
2022-08-21T10:26:19.406Z,29.80
2022-08-21T10:29:01.127Z,29.80
2022-08-21T10:31:44.813Z,29.80
2022-08-21T10:34:35.571Z,29.90
2022-08-21T10:37:20.511Z,29.90
2022-08-21T10:40:09.211Z,29.90
2022-08-21T10:42:49.399Z,29.90
2022-08-21T10:45:33.978Z,29.90
2022-08-21T10:48:08.976Z,29.90
2022-08-21T10:50:46.599Z,29.90
2022-08-21T10:53:43.576Z,29.90
2022-08-21T10:56:20.131Z,29.90
2022-08-21T10:59:04.106Z,29.90
2022-08-21T11:01:44.035Z,29.90
2022-08-21T11:04:18.111Z,30.00
2022-08-21T11:06:54.783Z,30.00
2022-08-21T11:09:28.450Z,30.00
2022-08-21T11:12:11.411Z,30.00
2022-08-21T11:14:53.708Z,30.00
2022-08-21T11:17:40.926Z,30.00
2022-08-21T11:20:29.766Z,30.00
2022-08-21T11:23:09.280Z,30.00
2022-08-21T11:25:45.407Z,30.00
2022-08-21T11:28:23.339Z,30.00
2022-08-21T11:31:08.626Z,30.00
2022-08-21T11:33:58.291Z,30.00
2022-08-21T11:36:44.067Z,30.10
2022-08-21T11:39:27.488Z,30.10
2022-08-21T11:42:08.713Z,30.10
2022-08-21T11:44:55.577Z,30.20
2022-08-21T11:47:42.254Z,30.10
2022-08-21T11:50:34.817Z,30.10
2022-08-21T11:53:13.469Z,30.10
2022-08-21T11:55:48.774Z,30.10
2022-08-21T11:58:25.314Z,30.20
2022-08-21T12:00:58.006Z,30.20
2022-08-21T12:03:30.081Z,30.20
2022-08-21T12:06:02.794Z,30.20
2022-08-21T12:08:34.696Z,30.20
2022-08-21T12:11:08.405Z,30.20
2022-08-21T12:13:42.864Z,30.20
2022-08-21T12:16:17.622Z,30.20
2022-08-21T12:18:46.074Z,30.20
2022-08-21T12:21:25.627Z,30.20
2022-08-21T12:24:06.720Z,30.20
2022-08-21T12:26:38.385Z,30.20
2022-08-21T12:29:25.033Z,30.30
2022-08-21T12:32:00.686Z,30.30
2022-08-21T12:34:39.204Z,30.30
2022-08-21T12:37:17.362Z,30.30
2022-08-21T12:39:51.485Z,30.30
2022-08-21T12:42:24.700Z,30.30
2022-08-21T12:44:59.841Z,30.30
2022-08-21T12:47:36.567Z,30.30
2022-08-21T12:50:11.503Z,30.30
2022-08-21T12:52:53.091Z,30.30
2022-08-21T12:55:30.417Z,30.30
2022-08-21T12:57:58.762Z,30.40
2022-08-21T13:00:32.431Z,30.40
2022-08-21T13:03:00.864Z,30.40
2022-08-21T13:05:35.307Z,30.40
2022-08-21T13:08:07.277Z,30.40
2022-08-21T13:10:38.062Z,30.40
2022-08-21T13:13:12.783Z,30.40
2022-08-21T13:15:47.870Z,30.50
2022-08-21T13:18:24.915Z,30.50
2022-08-21T13:20:53.611Z,30.50
2022-08-21T13:23:26.719Z,30.40
2022-08-21T13:25:55.533Z,30.40
2022-08-21T13:28:24.522Z,30.50
2022-08-21T13:30:56.712Z,30.50
2022-08-21T13:33:37.302Z,30.50
2022-08-21T13:36:13.358Z,30.50
2022-08-21T13:38:44.145Z,30.50
2022-08-21T13:41:24.621Z,30.50
2022-08-21T13:44:00.997Z,30.50
2022-08-21T13:46:37.568Z,30.60
2022-08-21T13:49:08.397Z,30.50
2022-08-21T13:51:37.133Z,30.60
2022-08-21T13:54:24.372Z,30.60
2022-08-21T13:56:52.623Z,30.60
2022-08-21T13:59:31.352Z,30.60
2022-08-21T14:02:10.083Z,30.60
2022-08-21T14:04:45.555Z,30.60
2022-08-21T14:07:28.526Z,30.60
2022-08-21T14:09:57.083Z,30.60
2022-08-21T14:12:31.411Z,30.60
2022-08-21T14:15:03.979Z,30.60
2022-08-21T14:17:38.571Z,30.60
2022-08-21T14:20:11.120Z,30.60
2022-08-21T14:22:44.439Z,30.60
2022-08-21T14:25:15.996Z,30.60
2022-08-21T14:27:51.949Z,30.60
2022-08-21T14:30:23.968Z,30.60
2022-08-21T14:32:53.417Z,30.60
2022-08-21T14:35:23.718Z,30.60
2022-08-21T14:37:53.391Z,30.70
2022-08-21T14:40:25.527Z,30.70
2022-08-21T14:42:53.736Z,30.70
2022-08-21T14:45:28.379Z,30.70
2022-08-21T14:47:58.742Z,30.70
2022-08-21T14:50:28.272Z,30.70
2022-08-21T14:52:56.691Z,30.70
2022-08-21T14:55:24.785Z,30.70
2022-08-21T14:57:56.384Z,30.70
2022-08-21T15:00:35.629Z,30.70
2022-08-21T15:03:05.763Z,30.70
2022-08-21T15:05:34.279Z,30.70
2022-08-21T15:08:03.357Z,30.70
2022-08-21T15:10:34.540Z,30.70
2022-08-21T15:13:03.200Z,30.70
2022-08-21T15:15:34.345Z,30.70
2022-08-21T15:18:02.164Z,30.70
2022-08-21T15:20:31.376Z,30.70
2022-08-21T15:22:59.458Z,30.70
2022-08-21T15:25:27.466Z,30.70
2022-08-21T15:27:55.272Z,30.70
2022-08-21T15:30:23.343Z,30.70
2022-08-21T15:32:54.068Z,30.70
2022-08-21T15:35:21.981Z,30.80
2022-08-21T15:37:51.184Z,30.80
2022-08-21T15:40:19.547Z,30.80
2022-08-21T15:42:47.485Z,30.80
2022-08-21T15:45:16.330Z,30.80
2022-08-21T15:47:47.718Z,30.80
2022-08-21T15:50:16.019Z,30.80
2022-08-21T15:52:43.879Z,30.80
2022-08-21T15:55:13.736Z,30.80
2022-08-21T15:57:57.331Z,30.80
2022-08-21T16:00:26.724Z,30.80
2022-08-21T16:02:58.703Z,30.80
2022-08-21T16:05:26.843Z,30.80
2022-08-21T16:07:54.784Z,30.80
2022-08-21T16:10:28.457Z,30.80
2022-08-21T16:13:05.891Z,30.80
2022-08-21T16:15:33.914Z,30.80
2022-08-21T16:18:01.768Z,30.80
2022-08-21T16:20:31.270Z,30.80
2022-08-21T16:23:00.096Z,30.90
2022-08-21T16:25:29.692Z,30.80
2022-08-21T16:28:02.406Z,30.90
2022-08-21T16:30:31.832Z,30.90
2022-08-21T16:33:02.476Z,30.90
2022-08-21T16:35:31.339Z,30.90
2022-08-21T16:37:59.291Z,30.90
2022-08-21T16:40:28.508Z,30.90
2022-08-21T16:42:58.087Z,30.90
2022-08-21T16:45:28.810Z,30.90
2022-08-21T16:48:00.509Z,30.90
2022-08-21T16:50:28.658Z,30.90
2022-08-21T16:52:56.459Z,30.90
2022-08-21T16:55:24.265Z,30.90
2022-08-21T16:57:52.133Z,30.90
2022-08-21T17:00:21.457Z,30.90
2022-08-21T17:02:55.641Z,30.90
2022-08-21T17:05:23.996Z,30.90
2022-08-21T17:07:52.099Z,30.90
2022-08-21T17:10:20.272Z,30.90
2022-08-21T17:12:56.226Z,30.90
2022-08-21T17:15:32.263Z,30.90
2022-08-21T17:18:01.088Z,30.90
2022-08-21T17:20:29.193Z,30.90
2022-08-21T17:22:57.161Z,31.00
2022-08-21T17:25:26.306Z,30.90
2022-08-21T17:27:55.588Z,31.00
2022-08-21T17:30:25.420Z,30.90
2022-08-21T17:32:58.504Z,31.00
2022-08-21T17:35:26.601Z,31.00
2022-08-21T17:37:54.636Z,31.00
2022-08-21T17:40:22.855Z,31.00
2022-08-21T17:42:51.095Z,31.00
2022-08-21T17:45:24.355Z,31.00
2022-08-21T17:47:53.787Z,31.00
2022-08-21T17:50:23.176Z,31.00
2022-08-21T17:52:51.448Z,31.00
2022-08-21T17:55:21.043Z,31.00
2022-08-21T17:57:53.232Z,31.00
2022-08-21T18:00:24.057Z,31.00
2022-08-21T18:03:02.346Z,31.00
2022-08-21T18:05:30.812Z,31.00
2022-08-21T18:07:58.911Z,31.00
2022-08-21T18:10:27.174Z,31.00
2022-08-21T18:12:55.629Z,31.00
2022-08-21T18:15:23.629Z,31.00
2022-08-21T18:17:53.968Z,31.00
2022-08-21T18:20:23.942Z,31.00
2022-08-21T18:22:52.089Z,31.00
2022-08-21T18:25:20.290Z,31.00
2022-08-21T18:27:49.562Z,31.00
2022-08-21T18:30:21.885Z,31.00
2022-08-21T18:32:51.023Z,31.00
2022-08-21T18:35:20.676Z,31.00
2022-08-21T18:37:48.583Z,31.00
2022-08-21T18:40:16.707Z,31.00
2022-08-21T18:42:55.540Z,31.00
2022-08-21T18:45:24.510Z,31.00
2022-08-21T18:47:56.021Z,31.00
2022-08-21T18:50:29.166Z,31.00
2022-08-21T18:52:57.685Z,31.00
2022-08-21T18:55:26.225Z,31.00
2022-08-21T18:57:56.721Z,31.00
2022-08-21T19:00:28.928Z,31.00
2022-08-21T19:02:57.567Z,31.00
2022-08-21T19:05:27.632Z,31.00
2022-08-21T19:07:58.048Z,31.00
2022-08-21T19:10:29.254Z,31.00
2022-08-21T19:12:59.375Z,31.10
2022-08-21T19:15:27.585Z,31.10
2022-08-21T19:17:57.338Z,31.10
2022-08-21T19:20:30.977Z,31.10
2022-08-21T19:22:59.023Z,31.10
2022-08-21T19:25:33.505Z,31.10
2022-08-21T19:28:10.907Z,31.00
2022-08-21T19:30:45.975Z,31.00
2022-08-21T19:33:24.137Z,31.00
2022-08-21T19:35:53.616Z,31.00
2022-08-21T19:38:21.911Z,31.00
2022-08-21T19:40:50.169Z,31.00
2022-08-21T19:46:07.065Z,31.00
2022-08-21T19:48:38.203Z,31.00
2022-08-21T19:51:09.812Z,31.00
2022-08-21T19:53:37.672Z,31.00
2022-08-21T19:56:11.344Z,31.00
2022-08-21T19:58:44.257Z,31.00
2022-08-21T20:01:16.730Z,31.00
2022-08-21T20:03:53.791Z,31.00
2022-08-21T20:06:25.061Z,31.00
2022-08-21T20:08:54.713Z,31.00
2022-08-21T20:11:37.553Z,31.00
2022-08-21T20:14:16.069Z,31.00
2022-08-21T20:16:57.453Z,31.00
2022-08-21T20:19:33.816Z,31.00
2022-08-21T20:22:05.980Z,31.00
2022-08-21T20:24:35.318Z,31.00
2022-08-21T20:27:07.755Z,31.00
2022-08-21T20:29:42.888Z,31.00
2022-08-21T20:32:12.543Z,31.00
2022-08-21T20:37:37.720Z,31.00
2022-08-21T20:40:12.203Z,31.00
2022-08-21T20:42:49.479Z,31.00
2022-08-21T20:45:30.266Z,31.00
2022-08-21T20:48:32.416Z,31.00
2022-08-21T20:51:31.835Z,31.00
2022-08-21T20:54:21.339Z,31.00
2022-08-21T20:57:04.667Z,31.00
2022-08-21T21:00:00.040Z,31.00
2022-08-21T21:02:48.732Z,30.90
2022-08-21T21:05:35.069Z,31.00
2022-08-21T21:08:15.699Z,30.90
2022-08-21T21:10:58.660Z,30.90
2022-08-21T21:13:37.538Z,30.90
2022-08-21T21:16:22.299Z,30.90
2022-08-21T21:19:04.090Z,30.90
2022-08-21T21:21:42.196Z,30.90
2022-08-21T21:24:30.235Z,30.90
2022-08-21T21:27:11.943Z,30.90
2022-08-21T21:29:51.768Z,30.90
2022-08-21T21:32:22.193Z,30.90
2022-08-21T21:34:56.204Z,30.90
2022-08-21T21:37:38.814Z,30.90
2022-08-21T21:40:36.172Z,30.90
2022-08-21T21:43:21.242Z,30.90
2022-08-21T21:46:22.665Z,30.90
2022-08-21T21:49:11.464Z,30.90
2022-08-21T21:52:10.645Z,30.90
2022-08-21T21:55:07.389Z,30.90
2022-08-21T21:57:55.054Z,30.90
2022-08-21T22:03:54.227Z,30.90
2022-08-21T22:06:37.462Z,30.90
2022-08-21T22:09:19.047Z,30.90
2022-08-21T22:12:14.561Z,30.80
2022-08-21T22:14:49.189Z,30.90
2022-08-21T22:17:48.488Z,30.80
2022-08-21T22:20:39.086Z,30.80
2022-08-21T22:23:16.196Z,30.80
2022-08-21T22:25:59.192Z,30.80
2022-08-21T22:28:38.113Z,30.80
2022-08-21T22:31:22.157Z,30.80
2022-08-21T22:34:18.171Z,30.80
2022-08-21T22:37:00.383Z,30.80
2022-08-21T22:39:39.088Z,30.80
2022-08-21T22:42:15.263Z,30.80
2022-08-21T22:45:01.152Z,30.80
2022-08-21T22:47:43.965Z,30.80
2022-08-21T22:50:38.251Z,30.80
2022-08-21T22:53:11.645Z,30.80
2022-08-21T22:55:55.386Z,30.80
2022-08-21T22:58:35.637Z,30.80
2022-08-21T23:01:20.094Z,30.80
2022-08-21T23:04:03.524Z,30.80
2022-08-21T23:06:44.290Z,30.70
2022-08-21T23:09:40.321Z,30.70
2022-08-21T23:12:36.137Z,30.80
2022-08-21T23:15:18.220Z,30.70
2022-08-21T23:18:02.897Z,30.70
2022-08-21T23:20:43.965Z,30.70
2022-08-21T23:23:27.006Z,30.70
2022-08-21T23:26:22.788Z,30.70
2022-08-21T23:29:25.342Z,30.70
2022-08-21T23:35:17.996Z,30.70
2022-08-21T23:38:09.406Z,30.70
2022-08-21T23:40:55.979Z,30.70
2022-08-21T23:44:10.079Z,30.70
2022-08-21T23:47:10.660Z,30.70
2022-08-21T23:50:01.357Z,30.70
2022-08-21T23:53:09.375Z,30.70
2022-08-21T23:56:05.087Z,30.70
2022-08-21T23:58:53.634Z,30.70
